Time;durP1;ratioP1;P1;durP2;ratioP2;P2;SDS_P1;SDS_P2;PMS_P1;PMS_P2;Temp;Humidity;BMP_temperature;BMP_pressure;BME280_temperature;BME280_humidity;BME280_pressure;Samples;Min_cycle;Max_cycle;Signal;HPM_P1;HPM_P2
2022/08/23 00:01:35;;;;;;;6.15;1.77;;;17.20;99.90;;;;;;5104460;28;20074;-66
2022/08/23 00:04:05;;;;;;;4.38;1.77;;;17.20;99.90;;;;;;5106122;28;20040;-66
2022/08/23 00:06:31;;;;;;;3.38;1.35;;;17.20;99.90;;;;;;5105752;28;20115;-66
2022/08/23 00:08:57;;;;;;;6.10;1.40;;;17.10;99.90;;;;;;5106819;28;20122;-66
2022/08/23 00:11:32;;;;;;;6.28;1.58;;;17.00;99.90;;;;;;5091422;28;20085;-66
2022/08/23 00:14:01;;;;;;;4.35;1.58;;;17.00;99.90;;;;;;5106698;28;20039;-66
2022/08/23 00:16:27;;;;;;;;;;;17.00;99.90;;;;;;5106613;28;20502;-66
2022/08/23 00:18:53;;;;;;;8.40;1.92;;;17.00;99.90;;;;;;5105729;28;20001;-66
2022/08/23 00:21:19;;;;;;;7.50;1.92;;;17.00;99.90;;;;;;5106840;28;20039;-66
2022/08/23 00:23:45;;;;;;;9.52;2.22;;;16.90;99.90;;;;;;5106025;28;20063;-67
2022/08/23 00:26:11;;;;;;;12.27;2.60;;;16.90;99.90;;;;;;5106544;28;20486;-66
2022/08/23 00:28:36;;;;;;;7.18;1.83;;;16.80;99.90;;;;;;5105015;28;20043;-66
2022/08/23 00:31:02;;;;;;;10.65;2.17;;;16.80;99.90;;;;;;5106191;28;20094;-66
2022/08/23 00:33:28;;;;;;;8.10;1.90;;;16.80;99.90;;;;;;5104337;28;20077;-66
2022/08/23 00:35:54;;;;;;;5.15;1.73;;;16.80;99.90;;;;;;5094679;28;20162;-66
2022/08/23 00:38:20;;;;;;;4.38;1.67;;;16.80;99.90;;;;;;5084155;28;20048;-66
2022/08/23 00:40:52;;;;;;;5.57;1.83;;;16.80;99.90;;;;;;5087634;28;20522;-66
2022/08/23 00:49:10;;;;;;;8.82;2.88;;;16.70;99.90;;;;;;5096485;28;20366;-66
2022/08/23 00:52:07;;;;;;;9.82;2.38;;;16.70;99.90;;;;;;5108946;28;20047;-66
2022/08/23 00:54:34;;;;;;;12.55;2.85;;;16.70;99.90;;;;;;5108685;28;20038;-66
2022/08/23 00:57:07;;;;;;;6.28;2.05;;;16.70;99.90;;;;;;5108030;28;20509;-67
2022/08/23 00:59:32;;;;;;;11.75;2.38;;;16.70;99.90;;;;;;5097521;28;20394;-66
2022/08/23 01:01:59;;;;;;;8.52;2.45;;;16.70;99.90;;;;;;5109588;28;20081;-66
2022/08/23 01:04:30;;;;;;;6.38;2.35;;;16.60;99.90;;;;;;5109915;28;20028;-66
2022/08/23 01:07:08;;;;;;;3.95;2.25;;;16.60;99.90;;;;;;5108244;28;20053;-66
2022/08/23 01:09:36;;;;;;;4.57;2.15;;;16.60;99.90;;;;;;5093084;28;20036;-66
2022/08/23 01:12:08;;;;;;;7.55;2.25;;;16.50;99.90;;;;;;5108184;28;20378;-66
2022/08/23 01:14:45;;;;;;;7.60;2.30;;;16.50;99.90;;;;;;5109911;28;20039;-66
2022/08/23 01:17:17;;;;;;;7.95;2.33;;;16.50;99.90;;;;;;5107053;28;20079;-66
2022/08/23 01:19:49;;;;;;;3.95;2.22;;;16.50;99.90;;;;;;5107529;28;20497;-66
2022/08/23 01:22:25;;;;;;;5.90;1.75;;;16.40;99.90;;;;;;5109184;28;20052;-66
2022/08/23 01:24:52;;;;;;;6.50;2.00;;;16.40;99.90;;;;;;5094135;28;20047;-66
2022/08/23 01:27:18;;;;;;;11.15;2.60;;;16.40;99.90;;;;;;5108901;28;20046;-66
2022/08/23 01:29:44;;;;;;;12.32;2.65;;;16.40;99.90;;;;;;5108399;28;20043;-66
2022/08/23 01:32:12;;;;;;;6.38;2.47;;;16.30;99.90;;;;;;5108071;28;20051;-66
2022/08/23 01:34:37;;;;;;;5.97;2.38;;;16.30;99.90;;;;;;5108948;28;20058;-66
2022/08/23 01:37:06;;;;;;;8.65;2.55;;;16.30;99.90;;;;;;5106497;28;20047;-66
2022/08/23 01:39:33;;;;;;;8.18;2.10;;;16.30;99.90;;;;;;5107835;28;20052;-66
2022/08/23 01:41:59;;;;;;;3.78;1.65;;;16.20;99.90;;;;;;5088717;28;20093;-66
2022/08/23 01:44:25;;;;;;;8.10;2.53;;;16.20;99.90;;;;;;5109475;28;20039;-66
2022/08/23 01:46:51;;;;;;;7.60;2.50;;;16.10;99.90;;;;;;5107819;28;20052;-66
2022/08/23 01:49:19;;;;;;;6.03;2.58;;;16.10;99.90;;;;;;5107415;28;20079;-66
2022/08/23 01:51:45;;;;;;;7.93;2.85;;;16.10;99.90;;;;;;5108310;28;20040;-66
2022/08/23 01:54:11;;;;;;;11.30;2.97;;;16.00;99.90;;;;;;5106044;28;20403;-66
2022/08/23 01:56:39;;;;;;;9.23;1.98;;;16.00;99.90;;;;;;5107128;28;20481;-66
2022/08/23 01:59:08;;;;;;;5.03;2.13;;;16.00;99.90;;;;;;5107107;28;20121;-66
2022/08/23 02:01:34;;;;;;;10.02;2.45;;;16.00;99.90;;;;;;5108500;27;20575;-66
2022/08/23 02:04:00;;;;;;;8.80;2.33;;;15.90;99.90;;;;;;5107025;28;20130;-66
2022/08/23 02:06:26;;;;;;;9.85;2.40;;;15.90;99.90;;;;;;5107501;28;20055;-66
2022/08/23 02:09:01;;;;;;;8.90;2.45;;;15.80;99.90;;;;;;5106876;28;20027;-66
2022/08/23 02:11:45;;;;;;;6.60;2.28;;;15.80;99.90;;;;;;5094066;28;20031;-66
2022/08/23 02:14:17;;;;;;;5.43;2.75;;;15.80;99.90;;;;;;5108168;28;20501;-66
2022/08/23 02:16:47;;;;;;;16.45;3.90;;;15.80;99.90;;;;;;5107161;28;20057;-66
2022/08/23 02:19:14;;;;;;;10.27;2.88;;;15.80;99.90;;;;;;5108565;28;20044;-66
2022/08/23 02:21:41;;;;;;;6.45;2.65;;;15.90;99.90;;;;;;5107186;28;20046;-66
2022/08/23 02:24:13;;;;;;;7.82;2.67;;;15.90;99.90;;;;;;5106328;28;20043;-66
2022/08/23 02:26:42;;;;;;;14.20;2.03;;;15.90;99.90;;;;;;5108236;28;20497;-66
2022/08/23 02:29:08;;;;;;;8.65;2.25;;;15.90;99.90;;;;;;5106691;28;20043;-66
2022/08/23 02:31:34;;;;;;;5.55;2.17;;;15.90;99.90;;;;;;5106539;28;20060;-66
2022/08/23 02:34:01;;;;;;;6.72;2.15;;;15.90;99.90;;;;;;5106794;28;20047;-66
2022/08/23 02:36:27;;;;;;;12.73;3.20;;;15.80;99.90;;;;;;5107998;28;20069;-66
2022/08/23 02:38:54;;;;;;;6.38;2.35;;;15.80;99.90;;;;;;5105696;28;20050;-66
2022/08/23 02:41:20;;;;;;;5.45;2.50;;;15.80;99.90;;;;;;5089111;28;20045;-66
2022/08/23 02:43:49;;;;;;;9.63;2.63;;;15.70;99.90;;;;;;5107885;28;20062;-66
2022/08/23 02:46:15;;;;;;;3.05;2.20;;;15.70;99.90;;;;;;5106411;28;20039;-66
2022/08/23 02:48:40;;;;;;;6.88;2.72;;;15.70;99.90;;;;;;5106932;28;20055;-66
2022/08/23 02:51:07;;;;;;;8.70;2.50;;;15.60;99.90;;;;;;5106856;28;20498;-66
2022/08/23 02:53:34;;;;;;;4.25;2.25;;;15.70;99.90;;;;;;5108735;28;20042;-66
2022/08/23 02:56:00;;;;;;;5.35;2.70;;;15.60;99.90;;;;;;5107409;28;20040;-66
2022/08/23 02:58:26;;;;;;;7.03;2.60;;;15.70;99.90;;;;;;5107821;28;20061;-66
2022/08/23 03:00:52;;;;;;;9.18;2.50;;;15.60;99.90;;;;;;5107413;28;20466;-66
2022/08/23 03:03:20;;;;;;;5.70;2.63;;;15.60;99.90;;;;;;5105904;28;20115;-66
2022/08/23 03:05:46;;;;;;;3.72;2.80;;;15.60;99.90;;;;;;5107139;28;20078;-66
2022/08/23 03:08:13;;;;;;;5.70;3.05;;;15.50;99.90;;;;;;5106242;28;20050;-66
2022/08/23 03:10:47;;;;;;;8.95;2.30;;;15.50;99.90;;;;;;5102163;28;20036;-66
2022/08/23 03:13:13;;;;;;;5.43;2.58;;;15.50;99.90;;;;;;5087946;28;20043;-66
2022/08/23 03:15:40;;;;;;;4.13;2.35;;;15.50;99.90;;;;;;5106659;28;20093;-66
2022/08/23 03:18:07;;;;;;;8.57;2.72;;;15.40;99.90;;;;;;5107049;28;20043;-66
2022/08/23 03:20:34;;;;;;;5.53;2.80;;;15.40;99.90;;;;;;5107170;28;20050;-66
2022/08/23 03:23:00;;;;;;;5.30;2.50;;;15.40;99.90;;;;;;5106592;28;20080;-66
2022/08/23 03:25:27;;;;;;;11.02;2.78;;;15.40;99.90;;;;;;5105948;28;20057;-66
2022/08/23 03:27:53;;;;;;;10.57;2.75;;;15.40;99.90;;;;;;5089486;28;20038;-66
2022/08/23 03:30:18;;;;;;;8.52;3.10;;;15.40;99.90;;;;;;5104348;28;20118;-66
2022/08/23 03:32:44;;;;;;;5.97;3.25;;;15.40;99.90;;;;;;5088828;28;20055;-66
2022/08/23 03:35:10;;;;;;;7.07;3.45;;;15.40;99.90;;;;;;5105987;28;20054;-66
2022/08/23 03:37:36;;;;;;;6.95;3.53;;;15.30;99.90;;;;;;5107614;28;20126;-66
2022/08/23 03:40:03;;;;;;;12.07;3.60;;;15.40;99.90;;;;;;5107462;28;20341;-66
2022/08/23 03:42:29;;;;;;;6.05;3.47;;;15.40;99.90;;;;;;5105980;28;20042;-66
2022/08/23 03:44:55;;;;;;;11.98;2.50;;;15.40;99.90;;;;;;5107453;28;20389;-66
2022/08/23 03:47:21;;;;;;;8.02;3.05;;;15.40;99.90;;;;;;5104356;28;20043;-66
2022/08/23 03:49:47;;;;;;;5.90;3.55;;;15.30;99.90;;;;;;5106142;28;20470;-66
2022/08/23 03:52:13;;;;;;;5.40;3.50;;;15.30;99.90;;;;;;5105796;28;20032;-66
2022/08/23 03:54:38;;;;;;;9.38;4.00;;;15.30;99.90;;;;;;5105964;28;20559;-66
2022/08/23 03:57:08;;;;;;;13.10;4.68;;;15.50;99.90;;;;;;5105436;28;20109;-66
2022/08/23 03:59:37;;;;;;;9.30;4.25;;;15.60;99.90;;;;;;5105331;28;20047;-66
2022/08/23 04:02:04;;;;;;;10.40;4.38;;;15.70;99.90;;;;;;5107132;28;20086;-66
2022/08/23 04:04:29;;;;;;;6.63;3.40;;;15.70;99.90;;;;;;5103520;28;20474;-66
2022/08/23 04:06:55;;;;;;;8.15;3.75;;;15.60;99.90;;;;;;5105762;28;20122;-66
2022/08/23 04:09:21;;;;;;;4.47;3.55;;;15.60;99.90;;;;;;5099440;28;20044;-66
2022/08/23 04:11:47;;;;;;;6.32;3.80;;;15.50;99.90;;;;;;5098032;28;20044;-66
2022/08/23 04:14:13;;;;;;;5.13;4.25;;;15.50;99.90;;;;;;5105444;28;20096;-66
2022/08/23 04:16:40;;;;;;;13.30;5.57;;;15.50;99.90;;;;;;5104813;28;20119;-66
2022/08/23 04:19:14;;;;;;;8.82;4.93;;;15.40;99.90;;;;;;5106587;28;20036;-66
2022/08/23 04:21:47;;;;;;;8.32;4.18;;;15.40;99.90;;;;;;5104564;28;20047;-66
2022/08/23 04:24:13;;;;;;;11.10;4.38;;;15.50;99.90;;;;;;5106916;28;20040;-66
2022/08/23 04:26:40;;;;;;;7.40;4.03;;;15.40;99.90;;;;;;5105879;28;20122;-66
2022/08/23 04:29:07;;;;;;;9.70;3.92;;;15.40;99.90;;;;;;5088539;28;20043;-66
2022/08/23 04:31:33;;;;;;;7.50;4.40;;;15.40;99.90;;;;;;5103962;28;20040;-66
2022/08/23 04:33:59;;;;;;;11.52;5.07;;;15.40;99.90;;;;;;5106594;28;20131;-66
2022/08/23 04:36:25;;;;;;;5.93;4.15;;;15.30;99.90;;;;;;5087612;28;20291;-66
2022/08/23 04:38:51;;;;;;;9.10;4.05;;;15.40;99.90;;;;;;5105704;28;20055;-66
2022/08/23 04:44:01;;;;;;;11.35;4.45;;;15.30;99.90;;;;;;5099753;28;20501;-66
2022/08/23 04:46:27;;;;;;;8.20;4.70;;;15.30;99.90;;;;;;5105026;28;20058;-66
2022/08/23 04:48:53;;;;;;;9.60;4.65;;;15.30;99.90;;;;;;5087332;28;20087;-66
2022/08/23 04:51:21;;;;;;;10.77;4.60;;;15.20;99.90;;;;;;5087589;28;20090;-66
2022/08/23 04:53:47;;;;;;;9.52;3.97;;;15.20;99.90;;;;;;5105126;28;20114;-66
2022/08/23 04:56:12;;;;;;;5.82;4.05;;;15.20;99.90;;;;;;5105562;28;20043;-66
2022/08/23 04:58:39;;;;;;;14.32;4.50;;;15.20;99.90;;;;;;5087990;28;20080;-66
2022/08/23 05:01:07;;;;;;;11.18;4.57;;;15.20;99.90;;;;;;5103613;28;20055;-66
2022/08/23 05:03:34;;;;;;;14.52;5.85;;;15.30;99.90;;;;;;5105785;28;20135;-66
2022/08/23 05:06:00;;;;;;;15.05;5.00;;;15.30;99.90;;;;;;5105627;28;20039;-66
2022/08/23 05:08:26;;;;;;;8.52;5.30;;;15.50;99.90;;;;;;5104541;28;20039;-66
2022/08/23 05:10:52;;;;;;;9.65;5.03;;;15.60;99.90;;;;;;5090949;28;20048;-66
2022/08/23 05:13:18;;;;;;;12.52;5.63;;;15.70;99.90;;;;;;5104800;28;20043;-66
2022/08/23 05:15:44;;;;;;;12.85;4.93;;;15.80;99.90;;;;;;5105395;28;20036;-66
2022/08/23 05:18:10;;;;;;;8.48;5.38;;;15.80;99.90;;;;;;5105026;28;20032;-66
2022/08/23 05:20:36;;;;;;;17.10;5.53;;;15.90;99.90;;;;;;5106426;28;20396;-66
2022/08/23 05:23:02;;;;;;;17.33;4.93;;;16.00;99.90;;;;;;5103725;28;20407;-66
2022/08/23 05:25:48;;;;;;;16.88;6.30;;;16.00;99.90;;;;;;5106068;28;20043;-65
2022/08/23 05:28:16;;;;;;;9.13;4.63;;;16.10;99.90;;;;;;5107888;28;20082;-65
2022/08/23 05:30:41;;;;;;;13.10;5.53;;;16.20;99.90;;;;;;5106503;28;20060;-66
2022/08/23 05:33:07;;;;;;;7.50;4.57;;;16.30;99.90;;;;;;5109959;28;20039;-66
2022/08/23 05:35:33;;;;;;;13.63;5.03;;;16.40;99.90;;;;;;5107948;27;20044;-66
2022/08/23 05:37:59;;;;;;;11.95;4.72;;;16.50;99.90;;;;;;5109750;28;20512;-66
2022/08/23 05:40:26;;;;;;;11.90;5.07;;;16.60;99.90;;;;;;5090064;28;20048;-66
2022/08/23 05:42:52;;;;;;;7.43;4.90;;;16.60;99.90;;;;;;5108735;28;20048;-66
2022/08/23 05:45:18;;;;;;;8.73;4.68;;;16.60;99.90;;;;;;5107756;28;20500;-65
2022/08/23 05:47:45;;;;;;;8.60;5.32;;;16.70;99.90;;;;;;5090174;28;20043;-66
2022/08/23 05:50:12;;;;;;;12.30;5.25;;;16.80;99.90;;;;;;5109827;28;20051;-66
2022/08/23 05:52:38;;;;;;;10.95;5.72;;;16.80;99.90;;;;;;5107902;28;20052;-66
2022/08/23 05:55:06;;;;;;;12.70;5.85;;;16.80;99.90;;;;;;5109358;28;20047;-66
2022/08/23 05:57:36;;;;;;;11.68;5.35;;;16.90;99.90;;;;;;5106867;28;20385;-66
2022/08/23 06:00:06;;;;;;;9.98;4.93;;;17.00;99.90;;;;;;5109026;28;20040;-66
2022/08/23 06:02:32;;;;;;;9.18;4.93;;;17.00;99.90;;;;;;5108509;27;20493;-66
2022/08/23 06:04:58;;;;;;;7.63;5.07;;;17.00;99.90;;;;;;5107432;28;20089;-66
2022/08/23 06:07:23;;;;;;;13.73;4.95;;;17.10;99.90;;;;;;5090332;28;20081;-66
2022/08/23 06:09:49;;;;;;;10.18;5.15;;;17.10;99.90;;;;;;5099400;28;20044;-66
2022/08/23 06:12:15;;;;;;;14.98;5.60;;;17.10;99.90;;;;;;5103689;28;20043;-66
2022/08/23 06:14:41;;;;;;;7.05;5.10;;;17.20;99.90;;;;;;5107772;28;20047;-65
2022/08/23 06:17:06;;;;;;;11.90;5.55;;;17.30;99.90;;;;;;5107896;28;20036;-66
2022/08/23 06:19:32;;;;;;;8.65;5.03;;;17.40;99.90;;;;;;5107798;28;20073;-66
2022/08/23 06:21:58;;;;;;;7.28;5.22;;;17.50;99.90;;;;;;5106790;28;20403;-65
2022/08/23 06:24:25;;;;;;;9.48;5.15;;;17.60;99.90;;;;;;5107243;28;20032;-65
2022/08/23 06:26:51;;;;;;;12.52;5.55;;;17.80;99.90;;;;;;5107819;27;20052;-66
2022/08/23 06:29:18;;;;;;;8.43;5.10;;;17.90;99.90;;;;;;5088010;28;20028;-66
2022/08/23 06:31:47;;;;;;;9.43;4.53;;;18.10;99.90;;;;;;5109013;27;20436;-66
2022/08/23 06:34:23;;;;;;;9.15;4.65;;;18.20;99.90;;;;;;5108921;28;20059;-66
2022/08/23 06:36:51;;;;;;;12.07;5.10;;;18.30;99.90;;;;;;5103126;28;20048;-66
2022/08/23 06:39:19;;;;;;;12.82;4.90;;;18.50;99.90;;;;;;5107144;28;20166;-66
2022/08/23 06:41:49;;;;;;;11.23;4.80;;;18.50;99.90;;;;;;5108015;28;20444;-66
2022/08/23 06:44:16;;;;;;;11.40;5.20;;;18.70;99.90;;;;;;5107828;28;20130;-66
2022/08/23 06:46:42;;;;;;;12.25;4.38;;;18.80;99.90;;;;;;5108348;28;20122;-66
2022/08/23 06:49:08;;;;;;;10.32;4.75;;;18.90;99.90;;;;;;5107063;28;20592;-66
2022/08/23 06:51:37;;;;;;;18.50;5.05;;;18.90;99.90;;;;;;5106088;28;20127;-66
2022/08/23 06:54:06;;;;;;;10.43;4.50;;;19.00;99.90;;;;;;5107150;28;20071;-66
2022/08/23 06:56:33;;;;;;;11.30;4.63;;;19.10;99.90;;;;;;5107377;28;20425;-66
2022/08/23 06:58:58;;;;;;;9.75;5.03;;;19.20;99.90;;;;;;5109017;28;20035;-66
2022/08/23 07:01:34;;;;;;;10.23;4.72;;;19.30;99.90;;;;;;5106943;28;20567;-66
2022/08/23 07:04:03;;;;;;;8.48;4.32;;;19.40;99.90;;;;;;5108505;28;20035;-66
2022/08/23 07:06:29;;;;;;;11.23;5.03;;;19.70;99.90;;;;;;5105272;28;20051;-66
2022/08/23 07:08:55;;;;;;;10.35;4.78;;;19.90;99.90;;;;;;5106983;28;20747;-65
2022/08/23 07:11:22;;;;;;;19.17;5.05;;;20.10;99.90;;;;;;5097216;28;20039;-66
2022/08/23 07:13:47;;;;;;;12.65;5.20;;;20.40;99.90;;;;;;5107726;28;20233;-66
2022/08/23 07:16:16;;;;;;;16.40;6.13;;;20.70;99.90;;;;;;5089157;28;20398;-66
2022/08/23 07:18:44;;;;;;;12.32;5.10;;;21.00;99.90;;;;;;5106392;28;20071;-66
2022/08/23 07:21:11;;;;;;;22.13;5.20;;;21.20;99.60;;;;;;5107466;28;20036;-65
2022/08/23 07:23:38;;;;;;;13.25;5.22;;;21.40;99.90;;;;;;5106352;28;20153;-66
2022/08/23 07:26:11;;;;;;;12.00;4.95;;;21.60;98.20;;;;;;5108251;28;20118;-66
2022/08/23 07:28:38;;;;;;;10.65;4.32;;;21.80;94.50;;;;;;5107463;28;20035;-66
2022/08/23 07:31:07;;;;;;;10.43;4.70;;;22.00;93.90;;;;;;5107346;28;20556;-65
2022/08/23 07:33:33;;;;;;;10.77;4.88;;;22.20;92.70;;;;;;5094995;28;20464;-65
2022/08/23 07:35:59;;;;;;;10.75;5.43;;;22.40;93.70;;;;;;5105057;28;20039;-65
2022/08/23 07:38:25;;;;;;;11.00;4.53;;;22.70;89.70;;;;;;5103819;28;20508;-65
2022/08/23 07:40:51;;;;;;;12.52;4.22;;;22.80;87.90;;;;;;5104365;28;20044;-65
2022/08/23 07:43:16;;;;;;;6.57;3.78;;;23.00;82.30;;;;;;5105149;27;20046;-65
2022/08/23 07:45:42;;;;;;;6.75;3.08;;;23.30;87.30;;;;;;5104096;28;20034;-65
2022/08/23 07:48:08;;;;;;;6.63;3.50;;;23.40;67.40;;;;;;5105839;27;20070;-65
2022/08/23 07:50:34;;;;;;;6.00;3.08;;;23.60;69.00;;;;;;5106061;28;20036;-65
2022/08/23 07:53:02;;;;;;;6.38;3.15;;;23.60;68.90;;;;;;5104877;28;20043;-66
2022/08/23 07:55:28;;;;;;;17.98;3.58;;;23.60;70.80;;;;;;5107500;28;20032;-65
2022/08/23 07:57:54;;;;;;;7.07;2.72;;;23.70;64.80;;;;;;5105184;28;20047;-66
2022/08/23 08:00:20;;;;;;;13.95;3.45;;;23.90;69.00;;;;;;5105913;28;20043;-65
2022/08/23 08:02:45;;;;;;;9.50;2.80;;;24.00;52.10;;;;;;5103543;28;20040;-66
2022/08/23 08:05:11;;;;;;;11.27;3.60;;;24.00;61.50;;;;;;5098934;28;20027;-65
2022/08/23 08:07:37;;;;;;;8.27;3.38;;;24.10;54.20;;;;;;5086999;28;20035;-66
2022/08/23 08:10:04;;;;;;;6.50;3.30;;;24.10;56.60;;;;;;5100634;28;20039;-65
2022/08/23 08:12:31;;;;;;;6.80;2.38;;;24.20;54.40;;;;;;5105441;28;20390;-65
2022/08/23 08:14:58;;;;;;;6.18;2.75;;;24.30;49.70;;;;;;5105471;28;20903;-66
2022/08/23 08:17:24;;;;;;;6.30;2.65;;;24.50;43.30;;;;;;5105249;28;20485;-66
2022/08/23 08:19:49;;;;;;;10.55;3.60;;;24.70;42.60;;;;;;5102905;28;20083;-66
2022/08/23 08:22:15;;;;;;;6.13;2.50;;;24.90;39.20;;;;;;5104282;28;20036;-66
2022/08/23 08:24:41;;;;;;;7.82;2.67;;;25.00;39.00;;;;;;5103052;28;20078;-66
2022/08/23 08:27:07;;;;;;;15.48;2.30;;;25.20;34.00;;;;;;5105793;28;20042;-66
2022/08/23 08:29:33;;;;;;;8.90;2.60;;;25.30;30.90;;;;;;5092451;28;20552;-66
2022/08/23 08:31:59;;;;;;;6.70;2.60;;;25.50;23.80;;;;;;5103044;28;20857;-66
2022/08/23 08:34:25;;;;;;;7.70;2.50;;;25.50;25.80;;;;;;5105261;28;20040;-66
2022/08/23 08:36:54;;;;;;;6.68;2.50;;;25.70;23.70;;;;;;5102740;28;20050;-66
2022/08/23 08:39:22;;;;;;;5.67;2.13;;;25.80;25.20;;;;;;5102911;28;20075;-66
2022/08/23 08:42:10;;;;;;;6.57;2.57;;;25.90;25.10;;;;;;5103809;28;20313;-65
2022/08/23 08:44:50;;;;;;;4.80;2.42;;;26.10;21.50;;;;;;5100963;28;20431;-66
2022/08/23 08:47:36;;;;;;;8.95;2.75;;;26.20;21.60;;;;;;5106445;28;20050;-66
2022/08/23 08:50:05;;;;;;;12.93;3.10;;;26.30;15.50;;;;;;5104954;28;20527;-65
2022/08/23 08:52:36;;;;;;;12.98;2.53;;;26.10;15.00;;;;;;5103902;28;20549;-66
2022/08/23 08:55:17;;;;;;;3.50;2.30;;;26.10;16.40;;;;;;5103508;28;20085;-66
2022/08/23 08:57:46;;;;;;;13.45;2.58;;;26.20;16.30;;;;;;5101924;28;20079;-65
2022/08/23 09:00:24;;;;;;;5.15;2.55;;;26.10;15.90;;;;;;5106873;28;20043;-66
2022/08/23 09:02:50;;;;;;;6.50;2.67;;;26.10;14.00;;;;;;5105535;28;20043;-66
2022/08/23 09:05:33;;;;;;;8.85;2.72;;;26.20;15.20;;;;;;5111466;28;20505;-66
2022/08/23 09:08:23;;;;;;;6.15;2.30;;;26.30;16.20;;;;;;5110955;28;20036;-66
2022/08/23 09:10:56;;;;;;;6.80;2.33;;;26.50;14.00;;;;;;5106014;28;20114;-66
2022/08/23 09:13:37;;;;;;;4.20;2.28;;;26.60;10.40;;;;;;5110509;28;20043;-65
2022/08/23 09:16:14;;;;;;;8.98;2.10;;;26.70;10.50;;;;;;5108751;28;20046;-66
2022/08/23 09:18:41;;;;;;;4.75;2.20;;;26.80;10.20;;;;;;5110008;28;20047;-66
2022/08/23 09:21:08;;;;;;;4.93;2.10;;;26.60;8.20;;;;;;5107137;27;20436;-66
2022/08/23 09:26:29;;;;;;;10.52;2.00;;;26.30;7.60;;;;;;5069699;22;20163;-66
2022/08/23 09:29:00;;;;;;;5.20;2.05;;;26.20;9.30;;;;;;5044440;28;20056;-67
2022/08/23 09:31:42;;;;;;;6.10;1.88;;;26.30;10.60;;;;;;5057077;28;20048;-66
2022/08/23 09:34:14;;;;;;;8.63;2.10;;;26.50;10.40;;;;;;5052575;28;20514;-66
2022/08/23 09:36:40;;;;;;;5.53;2.50;;;26.60;7.60;;;;;;5055408;28;20067;-66
2022/08/23 09:39:27;;;;;;;4.28;1.92;;;26.50;8.80;;;;;;5059417;28;20475;-65
2022/08/23 09:41:53;;;;;;;5.95;2.53;;;26.60;8.90;;;;;;5065103;28;20049;-65
2022/08/23 09:44:42;;;;;;;4.07;2.40;;;26.50;9.20;;;;;;5054275;28;20102;-65
2022/08/23 09:47:10;;;;;;;;;;;26.40;9.30;;;;;;5048320;28;20048;-66
2022/08/23 09:49:38;;;;;;;8.30;2.10;;;26.20;7.50;;;;;;5053242;28;20370;-66
2022/08/23 09:52:34;;;;;;;14.32;2.00;;;25.90;6.90;;;;;;5055409;28;20251;-66
2022/08/23 09:55:21;;;;;;;6.40;2.03;;;25.80;9.00;;;;;;5044664;28;20045;-66
2022/08/23 09:57:48;;;;;;;14.45;2.53;;;25.90;8.90;;;;;;5049295;28;20554;-65
2022/08/23 10:00:23;;;;;;;5.88;1.85;;;26.10;10.30;;;;;;5046797;28;20037;-66
2022/08/23 10:02:49;;;;;;;6.38;2.03;;;26.20;10.90;;;;;;5049421;28;20053;-66
2022/08/23 10:05:14;;;;;;;7.47;2.10;;;26.30;11.80;;;;;;5047157;28;20041;-66
2022/08/23 10:07:44;;;;;;;12.05;2.45;;;26.40;12.30;;;;;;5049747;28;20060;-66
2022/08/23 10:10:19;;;;;;;5.03;1.92;;;26.30;10.30;;;;;;5047723;28;20049;-66
2022/08/23 10:12:46;;;;;;;4.90;1.88;;;26.40;14.40;;;;;;5049038;28;20127;-66
2022/08/23 10:15:13;;;;;;;17.15;2.15;;;26.60;12.10;;;;;;5049610;28;20033;-66
2022/08/23 10:17:47;;;;;;;7.78;2.15;;;26.80;11.90;;;;;;5048870;28;20506;-66
2022/08/23 10:20:23;;;;;;;4.43;2.15;;;26.80;6.70;;;;;;5047170;28;20091;-65
2022/08/23 10:23:03;;;;;;;9.38;2.10;;;26.70;8.60;;;;;;5030291;28;20041;-66
2022/08/23 10:25:39;;;;;;;6.47;1.85;;;26.60;8.20;;;;;;5058505;28;20494;-66
2022/08/23 10:31:52;;;;;;;7.85;1.90;;;26.70;8.50;;;;;;5053109;28;20052;-65
2022/08/23 10:34:21;;;;;;;7.40;1.90;;;26.80;9.30;;;;;;5057747;28;20044;-66
2022/08/23 10:37:24;;;;;;;7.90;2.50;;;26.80;9.90;;;;;;5049692;28;20040;-66
2022/08/23 10:40:19;;;;;;;3.65;1.90;;;26.90;8.00;;;;;;5048197;28;20095;-66
2022/08/23 10:43:03;;;;;;;7.93;2.33;;;27.00;9.70;;;;;;5063244;28;20091;-66
2022/08/23 10:45:33;;;;;;;4.95;1.70;;;27.10;14.00;;;;;;5045764;28;20164;-66
2022/08/23 10:48:08;;;;;;;8.35;2.08;;;27.10;7.80;;;;;;5047770;28;20044;-66
2022/08/23 10:50:56;;;;;;;4.88;1.90;;;27.20;11.60;;;;;;5036923;28;20072;-66
2022/08/23 10:53:38;;;;;;;5.60;2.10;;;27.20;8.10;;;;;;5048894;28;20059;-66
2022/08/23 10:56:06;;;;;;;13.48;2.15;;;27.20;6.50;;;;;;5047710;28;20036;-66
2022/08/23 10:58:35;;;;;;;6.43;1.77;;;27.20;6.40;;;;;;5049029;28;20106;-66
2022/08/23 11:01:02;;;;;;;9.90;1.90;;;27.20;4.80;;;;;;5046130;28;20388;-66
2022/08/23 11:03:41;;;;;;;4.82;1.75;;;27.20;9.20;;;;;;5048566;28;20076;-66
2022/08/23 11:06:34;;;;;;;3.10;1.52;;;27.20;8.20;;;;;;5048265;28;20391;-66
2022/08/23 11:09:06;;;;;;;12.68;2.20;;;27.20;4.40;;;;;;5046112;28;20037;-65
2022/08/23 11:11:45;;;;;;;12.07;1.85;;;27.20;3.60;;;;;;5048920;28;20041;-66
2022/08/23 11:14:29;;;;;;;5.80;1.85;;;27.10;8.90;;;;;;5047284;28;20073;-65
2022/08/23 11:17:22;;;;;;;11.50;1.88;;;27.20;7.60;;;;;;5046591;28;20087;-66
2022/08/23 11:19:58;;;;;;;4.95;1.73;;;27.30;4.90;;;;;;5048815;28;20045;-66
2022/08/23 11:22:27;;;;;;;5.43;1.80;;;27.40;5.30;;;;;;5029451;28;20517;-66
2022/08/23 11:25:33;;;;;;;4.15;1.70;;;27.50;4.10;;;;;;5048115;28;20064;-66
2022/08/23 11:28:36;;;;;;;2.92;1.50;;;27.60;4.80;;;;;;5030646;28;20049;-66
2022/08/23 11:31:08;;;;;;;2.83;1.60;;;27.70;2.40;;;;;;5023903;28;20056;-66
2022/08/23 11:33:46;;;;;;;5.82;1.70;;;27.80;1.00;;;;;;5039611;28;20048;-66
2022/08/23 11:36:15;;;;;;;;;;;27.90;1.70;;;;;;5046326;28;20080;-66
2022/08/23 11:38:47;;;;;;;5.88;2.00;;;27.90;3.40;;;;;;5063303;28;19926;-66
2022/08/23 11:41:18;;;;;;;7.72;1.88;;;28.00;1.00;;;;;;5046263;28;20482;-65
2022/08/23 11:43:48;;;;;;;9.70;1.90;;;28.00;1.00;;;;;;5047026;28;20384;-66
2022/08/23 11:46:26;;;;;;;8.32;2.20;;;28.10;1.00;;;;;;5047899;28;20414;-66
2022/08/23 11:49:00;;;;;;;6.27;1.93;;;28.20;1.00;;;;;;5033118;28;20054;-66
2022/08/23 11:51:39;;;;;;;6.00;1.92;;;28.20;1.00;;;;;;5046505;28;20399;-66
2022/08/23 11:54:28;;;;;;;5.47;1.77;;;28.30;1.00;;;;;;5046462;28;20045;-66
2022/08/23 11:57:05;;;;;;;6.43;1.55;;;28.40;1.00;;;;;;5044010;28;20047;-65
2022/08/23 11:59:43;;;;;;;10.38;1.80;;;28.50;1.00;;;;;;5048139;28;20044;-66
2022/08/23 12:02:31;;;;;;;5.57;1.50;;;28.50;1.00;;;;;;5045560;28;20483;-65
2022/08/23 12:05:00;;;;;;;6.47;1.70;;;28.40;1.00;;;;;;5046495;28;20098;-66
2022/08/23 12:08:02;;;;;;;6.25;1.77;;;28.40;1.00;;;;;;5048071;28;20071;-66
2022/08/23 12:10:37;;;;;;;6.40;1.70;;;28.40;1.00;;;;;;5046850;28;20076;-66
2022/08/23 12:13:44;;;;;;;3.85;1.80;;;28.40;1.00;;;;;;5046121;28;20045;-66
2022/08/23 12:16:13;;;;;;;5.05;1.88;;;28.40;1.00;;;;;;5019449;28;20444;-67
2022/08/23 12:18:47;;;;;;;;;;;28.30;1.00;;;;;;5046120;28;20135;-66
2022/08/23 12:21:42;;;;;;;11.45;2.28;;;28.30;1.00;;;;;;5045967;28;19931;-66
2022/08/23 12:24:32;;;;;;;4.00;1.60;;;28.30;1.00;;;;;;5047530;28;20041;-66
2022/08/23 12:27:01;;;;;;;7.07;2.00;;;28.30;1.00;;;;;;5044933;28;20051;-66
2022/08/23 12:29:44;;;;;;;4.45;1.52;;;28.20;1.00;;;;;;5045612;28;20488;-66
2022/08/23 12:32:28;;;;;;;4.15;1.77;;;28.20;1.00;;;;;;5045391;28;20522;-66
2022/08/23 12:35:26;;;;;;;14.65;2.58;;;28.20;1.00;;;;;;5029066;28;20554;-66
2022/08/23 12:38:00;;;;;;;7.97;1.90;;;28.10;1.00;;;;;;5047076;28;20057;-66
2022/08/23 12:40:35;;;;;;;5.95;1.67;;;28.20;1.00;;;;;;5049568;28;20514;-66
2022/08/23 12:43:15;;;;;;;6.85;1.48;;;28.30;1.00;;;;;;5047870;28;20049;-66
2022/08/23 12:45:43;;;;;;;3.97;1.63;;;28.50;1.00;;;;;;5050205;28;20111;-66
2022/08/23 12:48:11;;;;;;;8.35;1.58;;;28.60;1.00;;;;;;5048761;28;20033;-66
2022/08/23 12:50:43;;;;;;;3.77;1.50;;;28.70;1.00;;;;;;5031888;28;20221;-66
2022/08/23 12:53:15;;;;;;;4.63;1.63;;;28.60;1.00;;;;;;5049486;28;20048;-66
2022/08/23 12:55:48;;;;;;;3.28;1.63;;;28.60;1.00;;;;;;5049785;28;20045;-66
2022/08/23 12:58:16;;;;;;;7.45;1.85;;;28.60;1.00;;;;;;5047543;28;20052;-66
2022/08/23 13:00:53;;;;;;;4.88;1.70;;;28.50;1.00;;;;;;5047604;28;20675;-66
2022/08/23 13:03:26;;;;;;;8.57;1.70;;;28.60;1.00;;;;;;5050074;28;20406;-66
2022/08/23 13:05:54;;;;;;;4.18;1.90;;;28.70;1.00;;;;;;5036620;28;20041;-66
2022/08/23 13:08:25;;;;;;;4.20;1.73;;;28.70;1.00;;;;;;5048777;28;20498;-66
2022/08/23 13:10:51;;;;;;;7.35;1.65;;;28.70;1.00;;;;;;5035310;28;20049;-66
2022/08/23 13:13:22;;;;;;;3.15;1.58;;;28.70;1.00;;;;;;5030865;28;20084;-66
2022/08/23 13:15:52;;;;;;;2.72;1.50;;;28.70;1.00;;;;;;5049417;28;20049;-65
2022/08/23 13:18:37;;;;;;;3.42;1.42;;;28.70;1.00;;;;;;5046771;28;20545;-65
2022/08/23 13:21:32;;;;;;;3.88;1.35;;;28.60;1.00;;;;;;5035464;28;20107;-66